sensor_id;sensor_type;location;lat;lon;timestamp;temperature;humidity
12893;DHT22;6514;48.606;9.222;2022-08-19T00:01:39;19.30;99.90
12893;DHT22;6514;48.606;9.222;2022-08-19T00:04:08;19.20;99.90
12893;DHT22;6514;48.606;9.222;2022-08-19T00:06:37;19.20;99.90
12893;DHT22;6514;48.606;9.222;2022-08-19T00:09:06;19.20;99.90
12893;DHT22;6514;48.606;9.222;2022-08-19T00:11:35;19.20;99.90
12893;DHT22;6514;48.606;9.222;2022-08-19T00:14:04;19.20;99.90
12893;DHT22;6514;48.606;9.222;2022-08-19T00:16:32;19.10;99.90
12893;DHT22;6514;48.606;9.222;2022-08-19T00:18:59;19.10;99.90
12893;DHT22;6514;48.606;9.222;2022-08-19T00:21:26;19.10;99.90
12893;DHT22;6514;48.606;9.222;2022-08-19T00:23:54;19.00;99.90
12893;DHT22;6514;48.606;9.222;2022-08-19T00:26:23;19.00;99.90
12893;DHT22;6514;48.606;9.222;2022-08-19T00:28:52;18.90;99.90
12893;DHT22;6514;48.606;9.222;2022-08-19T00:31:19;18.90;99.90
12893;DHT22;6514;48.606;9.222;2022-08-19T00:33:46;18.90;99.90
12893;DHT22;6514;48.606;9.222;2022-08-19T00:36:14;18.80;99.90
12893;DHT22;6514;48.606;9.222;2022-08-19T00:38:41;18.80;99.90
12893;DHT22;6514;48.606;9.222;2022-08-19T00:41:10;18.70;99.90
12893;DHT22;6514;48.606;9.222;2022-08-19T00:43:39;18.70;99.90
12893;DHT22;6514;48.606;9.222;2022-08-19T00:46:08;18.70;99.90
12893;DHT22;6514;48.606;9.222;2022-08-19T00:48:35;18.70;99.90
12893;DHT22;6514;48.606;9.222;2022-08-19T00:51:04;18.70;99.90
12893;DHT22;6514;48.606;9.222;2022-08-19T00:53:32;18.60;99.90
12893;DHT22;6514;48.606;9.222;2022-08-19T00:56:01;18.70;99.90
12893;DHT22;6514;48.606;9.222;2022-08-19T00:58:31;18.60;99.90
12893;DHT22;6514;48.606;9.222;2022-08-19T01:00:59;18.60;99.90
12893;DHT22;6514;48.606;9.222;2022-08-19T01:03:28;18.50;99.90
12893;DHT22;6514;48.606;9.222;2022-08-19T01:05:55;18.50;99.90
12893;DHT22;6514;48.606;9.222;2022-08-19T01:08:23;18.50;99.90
12893;DHT22;6514;48.606;9.222;2022-08-19T01:10:52;18.50;99.90
12893;DHT22;6514;48.606;9.222;2022-08-19T01:13:23;18.50;99.90
12893;DHT22;6514;48.606;9.222;2022-08-19T01:15:55;18.50;99.90
12893;DHT22;6514;48.606;9.222;2022-08-19T01:18:23;18.50;99.90
12893;DHT22;6514;48.606;9.222;2022-08-19T01:20:53;18.50;99.90
12893;DHT22;6514;48.606;9.222;2022-08-19T01:23:22;18.40;99.90
12893;DHT22;6514;48.606;9.222;2022-08-19T01:26:08;18.40;99.90
12893;DHT22;6514;48.606;9.222;2022-08-19T01:28:36;18.40;99.90
12893;DHT22;6514;48.606;9.222;2022-08-19T01:31:04;18.40;99.90
12893;DHT22;6514;48.606;9.222;2022-08-19T01:33:31;18.30;99.90
12893;DHT22;6514;48.606;9.222;2022-08-19T01:36:05;18.20;99.90
12893;DHT22;6514;48.606;9.222;2022-08-19T01:38:37;18.20;99.90
12893;DHT22;6514;48.606;9.222;2022-08-19T01:41:05;18.20;99.90
12893;DHT22;6514;48.606;9.222;2022-08-19T01:43:32;18.20;99.90
12893;DHT22;6514;48.606;9.222;2022-08-19T01:46:00;18.20;99.90
12893;DHT22;6514;48.606;9.222;2022-08-19T01:48:27;18.20;99.90
12893;DHT22;6514;48.606;9.222;2022-08-19T01:50:55;18.20;99.90
12893;DHT22;6514;48.606;9.222;2022-08-19T01:53:23;18.10;99.90
12893;DHT22;6514;48.606;9.222;2022-08-19T01:55:51;18.10;99.90
12893;DHT22;6514;48.606;9.222;2022-08-19T01:58:22;18.10;99.90
12893;DHT22;6514;48.606;9.222;2022-08-19T02:00:50;18.10;99.90
12893;DHT22;6514;48.606;9.222;2022-08-19T02:03:17;18.10;99.90
12893;DHT22;6514;48.606;9.222;2022-08-19T02:05:45;18.10;99.90
12893;DHT22;6514;48.606;9.222;2022-08-19T02:08:13;18.10;99.90
12893;DHT22;6514;48.606;9.222;2022-08-19T02:10:41;18.10;99.90
12893;DHT22;6514;48.606;9.222;2022-08-19T02:13:11;18.10;99.90
12893;DHT22;6514;48.606;9.222;2022-08-19T02:15:39;18.10;99.90
12893;DHT22;6514;48.606;9.222;2022-08-19T02:18:06;18.10;99.90
12893;DHT22;6514;48.606;9.222;2022-08-19T02:20:34;18.00;99.90
12893;DHT22;6514;48.606;9.222;2022-08-19T02:23:01;18.00;99.90
12893;DHT22;6514;48.606;9.222;2022-08-19T02:25:29;18.00;99.90
12893;DHT22;6514;48.606;9.222;2022-08-19T02:27:56;18.00;99.90
12893;DHT22;6514;48.606;9.222;2022-08-19T02:30:25;18.00;99.90
12893;DHT22;6514;48.606;9.222;2022-08-19T02:32:52;18.00;99.90
12893;DHT22;6514;48.606;9.222;2022-08-19T02:35:20;18.00;99.90
12893;DHT22;6514;48.606;9.222;2022-08-19T02:37:47;18.00;99.90
12893;DHT22;6514;48.606;9.222;2022-08-19T02:40:32;18.00;99.90
12893;DHT22;6514;48.606;9.222;2022-08-19T02:43:00;18.00;99.90
12893;DHT22;6514;48.606;9.222;2022-08-19T02:45:31;18.00;99.90
12893;DHT22;6514;48.606;9.222;2022-08-19T02:47:59;18.00;99.90
12893;DHT22;6514;48.606;9.222;2022-08-19T02:50:27;18.00;99.90
12893;DHT22;6514;48.606;9.222;2022-08-19T02:52:54;18.00;99.90
12893;DHT22;6514;48.606;9.222;2022-08-19T02:55:21;18.00;99.90
12893;DHT22;6514;48.606;9.222;2022-08-19T02:57:49;18.00;99.90
12893;DHT22;6514;48.606;9.222;2022-08-19T03:00:16;18.00;99.90
12893;DHT22;6514;48.606;9.222;2022-08-19T03:02:45;18.00;99.90
12893;DHT22;6514;48.606;9.222;2022-08-19T03:05:12;18.00;99.90
12893;DHT22;6514;48.606;9.222;2022-08-19T03:07:39;18.00;99.90
12893;DHT22;6514;48.606;9.222;2022-08-19T03:10:07;18.00;99.90
12893;DHT22;6514;48.606;9.222;2022-08-19T03:12:36;17.90;99.90
12893;DHT22;6514;48.606;9.222;2022-08-19T03:15:05;17.90;99.90
12893;DHT22;6514;48.606;9.222;2022-08-19T03:17:33;17.90;99.90
12893;DHT22;6514;48.606;9.222;2022-08-19T03:20:03;17.90;99.90
12893;DHT22;6514;48.606;9.222;2022-08-19T03:22:30;17.90;99.90
12893;DHT22;6514;48.606;9.222;2022-08-19T03:24:57;17.90;99.90
12893;DHT22;6514;48.606;9.222;2022-08-19T03:27:25;17.80;99.90
12893;DHT22;6514;48.606;9.222;2022-08-19T03:29:52;17.80;99.90
12893;DHT22;6514;48.606;9.222;2022-08-19T03:32:19;17.90;99.90
12893;DHT22;6514;48.606;9.222;2022-08-19T03:34:47;17.80;99.90
12893;DHT22;6514;48.606;9.222;2022-08-19T03:37:16;17.80;99.90
12893;DHT22;6514;48.606;9.222;2022-08-19T03:39:43;17.80;99.90
12893;DHT22;6514;48.606;9.222;2022-08-19T03:42:11;17.80;99.90
12893;DHT22;6514;48.606;9.222;2022-08-19T03:44:38;17.80;99.90
12893;DHT22;6514;48.606;9.222;2022-08-19T03:47:05;17.80;99.90
12893;DHT22;6514;48.606;9.222;2022-08-19T03:49:33;17.80;99.90
12893;DHT22;6514;48.606;9.222;2022-08-19T03:52:01;17.80;99.90
12893;DHT22;6514;48.606;9.222;2022-08-19T03:54:32;17.80;99.90
12893;DHT22;6514;48.606;9.222;2022-08-19T03:56:59;17.80;99.90
12893;DHT22;6514;48.606;9.222;2022-08-19T03:59:31;17.80;99.90
12893;DHT22;6514;48.606;9.222;2022-08-19T04:02:00;17.80;99.90
12893;DHT22;6514;48.606;9.222;2022-08-19T04:04:28;17.70;99.90
12893;DHT22;6514;48.606;9.222;2022-08-19T04:06:56;17.80;99.90
12893;DHT22;6514;48.606;9.222;2022-08-19T04:09:23;17.70;99.90
12893;DHT22;6514;48.606;9.222;2022-08-19T04:11:53;17.70;99.90
12893;DHT22;6514;48.606;9.222;2022-08-19T04:14:23;17.70;99.90
12893;DHT22;6514;48.606;9.222;2022-08-19T04:16:51;17.70;99.90
12893;DHT22;6514;48.606;9.222;2022-08-19T04:19:19;17.70;99.90
12893;DHT22;6514;48.606;9.222;2022-08-19T04:21:48;17.70;99.90
12893;DHT22;6514;48.606;9.222;2022-08-19T04:24:16;17.70;99.90
12893;DHT22;6514;48.606;9.222;2022-08-19T04:26:43;17.70;99.90
12893;DHT22;6514;48.606;9.222;2022-08-19T04:29:13;17.70;99.90
12893;DHT22;6514;48.606;9.222;2022-08-19T04:31:42;17.70;99.90
12893;DHT22;6514;48.606;9.222;2022-08-19T04:34:11;17.70;99.90
12893;DHT22;6514;48.606;9.222;2022-08-19T04:36:41;17.70;99.90
12893;DHT22;6514;48.606;9.222;2022-08-19T04:39:12;17.60;99.90
12893;DHT22;6514;48.606;9.222;2022-08-19T04:41:40;17.70;99.90
12893;DHT22;6514;48.606;9.222;2022-08-19T04:44:26;17.70;99.90
12893;DHT22;6514;48.606;9.222;2022-08-19T04:46:56;17.70;99.90
12893;DHT22;6514;48.606;9.222;2022-08-19T04:49:24;17.70;99.90
12893;DHT22;6514;48.606;9.222;2022-08-19T04:51:52;17.70;99.90
12893;DHT22;6514;48.606;9.222;2022-08-19T04:54:22;17.70;99.90
12893;DHT22;6514;48.606;9.222;2022-08-19T04:56:51;17.80;99.90
12893;DHT22;6514;48.606;9.222;2022-08-19T04:59:19;17.80;99.90
12893;DHT22;6514;48.606;9.222;2022-08-19T05:01:48;17.80;99.90
12893;DHT22;6514;48.606;9.222;2022-08-19T05:04:17;17.90;99.90
12893;DHT22;6514;48.606;9.222;2022-08-19T05:06:44;18.00;99.90
12893;DHT22;6514;48.606;9.222;2022-08-19T05:09:13;18.00;99.90
12893;DHT22;6514;48.606;9.222;2022-08-19T05:11:40;18.00;99.90
12893;DHT22;6514;48.606;9.222;2022-08-19T05:14:07;18.00;99.90
12893;DHT22;6514;48.606;9.222;2022-08-19T05:16:34;18.10;99.90
12893;DHT22;6514;48.606;9.222;2022-08-19T05:19:03;18.10;99.90
12893;DHT22;6514;48.606;9.222;2022-08-19T05:21:47;18.10;99.90
12893;DHT22;6514;48.606;9.222;2022-08-19T05:24:32;18.10;99.90
12893;DHT22;6514;48.606;9.222;2022-08-19T05:27:00;18.10;99.90
12893;DHT22;6514;48.606;9.222;2022-08-19T05:29:29;18.10;99.90
12893;DHT22;6514;48.606;9.222;2022-08-19T05:31:58;18.20;99.90
12893;DHT22;6514;48.606;9.222;2022-08-19T05:34:27;18.20;99.90
12893;DHT22;6514;48.606;9.222;2022-08-19T05:36:55;18.10;99.90
12893;DHT22;6514;48.606;9.222;2022-08-19T05:39:24;18.20;99.90
12893;DHT22;6514;48.606;9.222;2022-08-19T05:41:53;18.20;99.90
12893;DHT22;6514;48.606;9.222;2022-08-19T05:44:23;18.20;99.90
12893;DHT22;6514;48.606;9.222;2022-08-19T05:46:50;18.20;99.90
12893;DHT22;6514;48.606;9.222;2022-08-19T05:49:20;18.20;99.90
12893;DHT22;6514;48.606;9.222;2022-08-19T05:51:49;18.20;99.90
12893;DHT22;6514;48.606;9.222;2022-08-19T05:54:16;18.30;99.90
12893;DHT22;6514;48.606;9.222;2022-08-19T05:56:44;18.30;99.90
12893;DHT22;6514;48.606;9.222;2022-08-19T05:59:13;18.30;99.90
12893;DHT22;6514;48.606;9.222;2022-08-19T06:01:44;18.40;99.90
12893;DHT22;6514;48.606;9.222;2022-08-19T06:04:11;18.40;99.90
12893;DHT22;6514;48.606;9.222;2022-08-19T06:06:40;18.40;99.90
12893;DHT22;6514;48.606;9.222;2022-08-19T06:09:08;18.50;99.90
12893;DHT22;6514;48.606;9.222;2022-08-19T06:11:38;18.50;99.90
12893;DHT22;6514;48.606;9.222;2022-08-19T06:14:08;18.50;99.90
12893;DHT22;6514;48.606;9.222;2022-08-19T06:16:37;18.60;99.90
12893;DHT22;6514;48.606;9.222;2022-08-19T06:19:07;18.60;99.90
12893;DHT22;6514;48.606;9.222;2022-08-19T06:21:36;18.60;99.90
12893;DHT22;6514;48.606;9.222;2022-08-19T06:24:05;18.60;99.90
12893;DHT22;6514;48.606;9.222;2022-08-19T06:26:35;18.60;99.90
12893;DHT22;6514;48.606;9.222;2022-08-19T06:29:03;18.60;99.90
12893;DHT22;6514;48.606;9.222;2022-08-19T06:31:33;18.60;99.90
12893;DHT22;6514;48.606;9.222;2022-08-19T06:34:01;18.70;99.90
12893;DHT22;6514;48.606;9.222;2022-08-19T06:36:30;18.80;99.90
12893;DHT22;6514;48.606;9.222;2022-08-19T06:39:00;18.80;99.90
12893;DHT22;6514;48.606;9.222;2022-08-19T06:41:28;18.80;99.90
12893;DHT22;6514;48.606;9.222;2022-08-19T06:43:57;18.90;99.90
12893;DHT22;6514;48.606;9.222;2022-08-19T06:46:24;18.90;99.90
12893;DHT22;6514;48.606;9.222;2022-08-19T06:48:52;19.00;99.90
12893;DHT22;6514;48.606;9.222;2022-08-19T06:51:21;19.00;99.90
12893;DHT22;6514;48.606;9.222;2022-08-19T06:53:50;19.00;99.90
12893;DHT22;6514;48.606;9.222;2022-08-19T06:56:20;19.00;99.90
12893;DHT22;6514;48.606;9.222;2022-08-19T06:58:47;19.10;99.90
12893;DHT22;6514;48.606;9.222;2022-08-19T07:01:20;19.10;99.90
12893;DHT22;6514;48.606;9.222;2022-08-19T07:03:47;19.10;99.90
12893;DHT22;6514;48.606;9.222;2022-08-19T07:06:16;19.10;99.90
12893;DHT22;6514;48.606;9.222;2022-08-19T07:08:44;19.20;99.90
12893;DHT22;6514;48.606;9.222;2022-08-19T07:11:14;19.20;99.90
12893;DHT22;6514;48.606;9.222;2022-08-19T07:13:41;19.20;99.90
12893;DHT22;6514;48.606;9.222;2022-08-19T07:16:12;19.20;99.90
12893;DHT22;6514;48.606;9.222;2022-08-19T07:18:42;19.20;99.90
12893;DHT22;6514;48.606;9.222;2022-08-19T07:21:11;19.20;99.90
12893;DHT22;6514;48.606;9.222;2022-08-19T07:23:38;19.10;99.90
12893;DHT22;6514;48.606;9.222;2022-08-19T07:26:06;19.10;99.90
12893;DHT22;6514;48.606;9.222;2022-08-19T07:28:33;19.10;99.90
12893;DHT22;6514;48.606;9.222;2022-08-19T07:31:05;19.00;99.90
12893;DHT22;6514;48.606;9.222;2022-08-19T07:33:32;19.00;99.90
12893;DHT22;6514;48.606;9.222;2022-08-19T07:36:04;19.00;99.90
12893;DHT22;6514;48.606;9.222;2022-08-19T07:38:31;19.10;99.90
12893;DHT22;6514;48.606;9.222;2022-08-19T07:40:59;19.10;99.90
12893;DHT22;6514;48.606;9.222;2022-08-19T07:43:26;19.20;99.90
12893;DHT22;6514;48.606;9.222;2022-08-19T07:45:54;19.20;99.90
12893;DHT22;6514;48.606;9.222;2022-08-19T07:48:22;19.20;99.90
12893;DHT22;6514;48.606;9.222;2022-08-19T07:50:51;19.30;99.90
12893;DHT22;6514;48.606;9.222;2022-08-19T07:53:20;19.30;99.90
12893;DHT22;6514;48.606;9.222;2022-08-19T07:55:47;19.40;99.90
12893;DHT22;6514;48.606;9.222;2022-08-19T07:58:17;19.40;99.90
12893;DHT22;6514;48.606;9.222;2022-08-19T08:00:46;19.40;99.90
12893;DHT22;6514;48.606;9.222;2022-08-19T08:03:13;19.50;99.90
12893;DHT22;6514;48.606;9.222;2022-08-19T08:05:41;19.50;99.90
12893;DHT22;6514;48.606;9.222;2022-08-19T08:08:27;19.50;99.90
12893;DHT22;6514;48.606;9.222;2022-08-19T08:11:13;19.50;99.90
12893;DHT22;6514;48.606;9.222;2022-08-19T08:13:41;19.40;99.90
12893;DHT22;6514;48.606;9.222;2022-08-19T08:16:08;19.40;99.90
12893;DHT22;6514;48.606;9.222;2022-08-19T08:18:35;19.30;99.90
12893;DHT22;6514;48.606;9.222;2022-08-19T08:21:07;19.30;99.90
12893;DHT22;6514;48.606;9.222;2022-08-19T08:23:35;19.20;99.90
12893;DHT22;6514;48.606;9.222;2022-08-19T08:26:02;19.20;99.90
12893;DHT22;6514;48.606;9.222;2022-08-19T08:28:30;19.10;99.90
12893;DHT22;6514;48.606;9.222;2022-08-19T08:31:03;19.10;99.90
12893;DHT22;6514;48.606;9.222;2022-08-19T08:33:33;19.10;99.90
12893;DHT22;6514;48.606;9.222;2022-08-19T08:36:00;19.10;99.90
12893;DHT22;6514;48.606;9.222;2022-08-19T08:38:31;19.00;99.90
12893;DHT22;6514;48.606;9.222;2022-08-19T08:41:09;19.10;99.90
12893;DHT22;6514;48.606;9.222;2022-08-19T08:43:46;19.10;99.90
12893;DHT22;6514;48.606;9.222;2022-08-19T08:46:17;19.10;99.90
12893;DHT22;6514;48.606;9.222;2022-08-19T08:48:51;19.20;99.90
12893;DHT22;6514;48.606;9.222;2022-08-19T08:51:32;19.20;99.90
12893;DHT22;6514;48.606;9.222;2022-08-19T08:54:02;19.20;99.90
12893;DHT22;6514;48.606;9.222;2022-08-19T08:56:33;19.30;99.90
12893;DHT22;6514;48.606;9.222;2022-08-19T08:59:05;19.30;99.90
12893;DHT22;6514;48.606;9.222;2022-08-19T09:01:34;19.30;99.90
12893;DHT22;6514;48.606;9.222;2022-08-19T09:04:03;19.30;99.90
12893;DHT22;6514;48.606;9.222;2022-08-19T09:06:36;19.30;99.90
12893;DHT22;6514;48.606;9.222;2022-08-19T09:09:13;19.30;99.90
12893;DHT22;6514;48.606;9.222;2022-08-19T09:11:56;19.30;99.90
12893;DHT22;6514;48.606;9.222;2022-08-19T09:14:36;19.30;99.90
12893;DHT22;6514;48.606;9.222;2022-08-19T09:17:07;19.30;99.90
12893;DHT22;6514;48.606;9.222;2022-08-19T09:19:35;19.30;99.90
12893;DHT22;6514;48.606;9.222;2022-08-19T09:22:02;19.20;99.90
12893;DHT22;6514;48.606;9.222;2022-08-19T09:24:30;19.20;99.90
12893;DHT22;6514;48.606;9.222;2022-08-19T09:26:59;19.10;99.90
12893;DHT22;6514;48.606;9.222;2022-08-19T09:29:26;19.20;99.90
12893;DHT22;6514;48.606;9.222;2022-08-19T09:31:55;19.20;99.90
12893;DHT22;6514;48.606;9.222;2022-08-19T09:34:22;19.20;99.90
12893;DHT22;6514;48.606;9.222;2022-08-19T09:36:49;19.20;99.90
12893;DHT22;6514;48.606;9.222;2022-08-19T09:39:18;19.20;99.90
12893;DHT22;6514;48.606;9.222;2022-08-19T09:41:45;19.20;99.90
12893;DHT22;6514;48.606;9.222;2022-08-19T09:44:14;19.30;99.90
12893;DHT22;6514;48.606;9.222;2022-08-19T09:46:44;19.30;99.90
12893;DHT22;6514;48.606;9.222;2022-08-19T09:49:32;19.30;99.90
12893;DHT22;6514;48.606;9.222;2022-08-19T09:52:00;19.30;99.90
12893;DHT22;6514;48.606;9.222;2022-08-19T09:54:27;19.30;99.90
12893;DHT22;6514;48.606;9.222;2022-08-19T09:56:54;19.30;99.90
12893;DHT22;6514;48.606;9.222;2022-08-19T09:59:23;19.40;99.90
12893;DHT22;6514;48.606;9.222;2022-08-19T10:01:51;19.40;99.90
12893;DHT22;6514;48.606;9.222;2022-08-19T10:04:20;19.40;99.90
12893;DHT22;6514;48.606;9.222;2022-08-19T10:06:48;19.40;99.90
12893;DHT22;6514;48.606;9.222;2022-08-19T10:09:17;19.40;99.90
12893;DHT22;6514;48.606;9.222;2022-08-19T10:11:46;19.40;99.90
12893;DHT22;6514;48.606;9.222;2022-08-19T10:14:14;19.40;99.90
12893;DHT22;6514;48.606;9.222;2022-08-19T10:16:43;19.40;99.90
12893;DHT22;6514;48.606;9.222;2022-08-19T10:19:11;19.40;99.90
12893;DHT22;6514;48.606;9.222;2022-08-19T10:21:38;19.30;99.90
12893;DHT22;6514;48.606;9.222;2022-08-19T10:24:06;19.20;99.90
12893;DHT22;6514;48.606;9.222;2022-08-19T10:26:43;19.20;99.90
12893;DHT22;6514;48.606;9.222;2022-08-19T10:29:13;19.20;99.90
12893;DHT22;6514;48.606;9.222;2022-08-19T10:31:42;19.20;99.90
12893;DHT22;6514;48.606;9.222;2022-08-19T10:34:10;19.20;99.90
12893;DHT22;6514;48.606;9.222;2022-08-19T10:36:37;19.20;99.90
12893;DHT22;6514;48.606;9.222;2022-08-19T10:39:07;19.30;99.90
12893;DHT22;6514;48.606;9.222;2022-08-19T10:41:36;19.30;99.90
12893;DHT22;6514;48.606;9.222;2022-08-19T10:44:06;19.30;99.90
12893;DHT22;6514;48.606;9.222;2022-08-19T10:46:37;19.30;99.90
12893;DHT22;6514;48.606;9.222;2022-08-19T10:49:10;19.30;99.90
12893;DHT22;6514;48.606;9.222;2022-08-19T10:51:37;19.30;99.90
12893;DHT22;6514;48.606;9.222;2022-08-19T10:54:22;19.30;99.90
12893;DHT22;6514;48.606;9.222;2022-08-19T10:57:09;19.30;99.90
12893;DHT22;6514;48.606;9.222;2022-08-19T10:59:35;19.40;99.90
12893;DHT22;6514;48.606;9.222;2022-08-19T11:02:05;19.40;99.90
12893;DHT22;6514;48.606;9.222;2022-08-19T11:04:34;19.40;99.90
12893;DHT22;6514;48.606;9.222;2022-08-19T11:07:01;19.40;99.90
12893;DHT22;6514;48.606;9.222;2022-08-19T11:09:28;19.40;99.90
12893;DHT22;6514;48.606;9.222;2022-08-19T11:11:56;19.40;99.90
12893;DHT22;6514;48.606;9.222;2022-08-19T11:14:23;19.40;99.90
12893;DHT22;6514;48.606;9.222;2022-08-19T11:16:51;19.40;99.90
12893;DHT22;6514;48.606;9.222;2022-08-19T11:19:22;19.40;99.90
12893;DHT22;6514;48.606;9.222;2022-08-19T11:21:51;19.40;99.90
12893;DHT22;6514;48.606;9.222;2022-08-19T11:24:21;19.40;99.90
12893;DHT22;6514;48.606;9.222;2022-08-19T11:26:51;19.40;99.90
12893;DHT22;6514;48.606;9.222;2022-08-19T11:29:20;19.50;99.90
12893;DHT22;6514;48.606;9.222;2022-08-19T11:31:49;19.50;99.90
12893;DHT22;6514;48.606;9.222;2022-08-19T11:34:18;19.50;99.90
12893;DHT22;6514;48.606;9.222;2022-08-19T11:36:47;19.50;99.90
12893;DHT22;6514;48.606;9.222;2022-08-19T11:39:19;19.50;99.90
12893;DHT22;6514;48.606;9.222;2022-08-19T11:41:47;19.50;99.90
12893;DHT22;6514;48.606;9.222;2022-08-19T11:44:14;19.50;99.90
12893;DHT22;6514;48.606;9.222;2022-08-19T11:46:42;19.40;99.90
12893;DHT22;6514;48.606;9.222;2022-08-19T11:49:11;19.40;99.90
12893;DHT22;6514;48.606;9.222;2022-08-19T11:51:38;19.40;99.90
12893;DHT22;6514;48.606;9.222;2022-08-19T11:54:06;19.40;99.90
12893;DHT22;6514;48.606;9.222;2022-08-19T11:56:34;19.50;99.90
12893;DHT22;6514;48.606;9.222;2022-08-19T11:59:02;19.50;99.90
12893;DHT22;6514;48.606;9.222;2022-08-19T12:01:29;19.50;99.90
12893;DHT22;6514;48.606;9.222;2022-08-19T12:03:57;19.50;99.90
12893;DHT22;6514;48.606;9.222;2022-08-19T12:06:26;19.40;99.90
12893;DHT22;6514;48.606;9.222;2022-08-19T12:08:55;19.50;99.90
12893;DHT22;6514;48.606;9.222;2022-08-19T12:11:22;19.40;99.90
12893;DHT22;6514;48.606;9.222;2022-08-19T12:13:51;19.50;99.90
12893;DHT22;6514;48.606;9.222;2022-08-19T12:16:22;19.50;99.90
12893;DHT22;6514;48.606;9.222;2022-08-19T12:18:50;19.50;99.90
12893;DHT22;6514;48.606;9.222;2022-08-19T12:21:19;19.50;99.90
12893;DHT22;6514;48.606;9.222;2022-08-19T12:23:48;19.50;99.90
12893;DHT22;6514;48.606;9.222;2022-08-19T12:26:16;19.50;99.90
12893;DHT22;6514;48.606;9.222;2022-08-19T12:28:43;19.40;99.90
12893;DHT22;6514;48.606;9.222;2022-08-19T12:31:12;19.50;99.90
12893;DHT22;6514;48.606;9.222;2022-08-19T12:33:40;19.50;99.90
12893;DHT22;6514;48.606;9.222;2022-08-19T12:36:10;19.50;99.90
12893;DHT22;6514;48.606;9.222;2022-08-19T12:38:38;19.60;99.90
12893;DHT22;6514;48.606;9.222;2022-08-19T12:41:06;19.60;99.90
12893;DHT22;6514;48.606;9.222;2022-08-19T12:43:34;19.60;99.90
12893;DHT22;6514;48.606;9.222;2022-08-19T12:46:01;19.60;99.90
12893;DHT22;6514;48.606;9.222;2022-08-19T12:48:31;19.50;99.90
12893;DHT22;6514;48.606;9.222;2022-08-19T12:50:58;19.50;99.90
12893;DHT22;6514;48.606;9.222;2022-08-19T12:53:25;19.50;99.90
12893;DHT22;6514;48.606;9.222;2022-08-19T12:55:55;19.50;99.90
12893;DHT22;6514;48.606;9.222;2022-08-19T12:58:22;19.50;99.90
12893;DHT22;6514;48.606;9.222;2022-08-19T13:00:50;19.40;99.90
12893;DHT22;6514;48.606;9.222;2022-08-19T13:03:17;19.40;99.90
12893;DHT22;6514;48.606;9.222;2022-08-19T13:05:45;19.50;99.90
12893;DHT22;6514;48.606;9.222;2022-08-19T13:08:12;19.60;99.90
12893;DHT22;6514;48.606;9.222;2022-08-19T13:10:39;19.60;99.90
12893;DHT22;6514;48.606;9.222;2022-08-19T13:13:08;19.60;99.90
12893;DHT22;6514;48.606;9.222;2022-08-19T13:15:36;19.60;99.90
12893;DHT22;6514;48.606;9.222;2022-08-19T13:18:06;19.50;99.90
12893;DHT22;6514;48.606;9.222;2022-08-19T13:20:35;19.50;99.90
12893;DHT22;6514;48.606;9.222;2022-08-19T13:23:04;19.50;99.90
12893;DHT22;6514;48.606;9.222;2022-08-19T13:25:31;19.40;99.90
12893;DHT22;6514;48.606;9.222;2022-08-19T13:27:59;19.30;99.90
12893;DHT22;6514;48.606;9.222;2022-08-19T13:30:26;19.20;99.90
12893;DHT22;6514;48.606;9.222;2022-08-19T13:33:10;19.20;99.90
12893;DHT22;6514;48.606;9.222;2022-08-19T13:35:38;19.10;99.90
12893;DHT22;6514;48.606;9.222;2022-08-19T13:38:07;19.20;99.90
12893;DHT22;6514;48.606;9.222;2022-08-19T13:40:34;19.20;99.90
12893;DHT22;6514;48.606;9.222;2022-08-19T13:43:03;19.20;99.90
12893;DHT22;6514;48.606;9.222;2022-08-19T13:45:31;19.30;99.90
12893;DHT22;6514;48.606;9.222;2022-08-19T13:48:00;19.30;99.90
12893;DHT22;6514;48.606;9.222;2022-08-19T13:50:30;19.30;99.90
12893;DHT22;6514;48.606;9.222;2022-08-19T13:52:58;19.40;99.90
12893;DHT22;6514;48.606;9.222;2022-08-19T13:55:27;19.40;99.90
12893;DHT22;6514;48.606;9.222;2022-08-19T13:57:55;19.30;99.90
12893;DHT22;6514;48.606;9.222;2022-08-19T14:00:24;19.30;99.90
12893;DHT22;6514;48.606;9.222;2022-08-19T14:02:53;19.30;99.90
12893;DHT22;6514;48.606;9.222;2022-08-19T14:05:21;19.30;99.90
12893;DHT22;6514;48.606;9.222;2022-08-19T14:07:48;19.30;99.90
12893;DHT22;6514;48.606;9.222;2022-08-19T14:10:16;19.40;99.90
12893;DHT22;6514;48.606;9.222;2022-08-19T14:12:44;19.30;99.90
12893;DHT22;6514;48.606;9.222;2022-08-19T14:15:13;19.40;99.90
12893;DHT22;6514;48.606;9.222;2022-08-19T14:17:41;19.30;99.90
12893;DHT22;6514;48.606;9.222;2022-08-19T14:20:10;19.30;99.90
12893;DHT22;6514;48.606;9.222;2022-08-19T14:22:39;19.40;99.90
12893;DHT22;6514;48.606;9.222;2022-08-19T14:25:09;19.30;99.90
12893;DHT22;6514;48.606;9.222;2022-08-19T14:27:37;19.30;99.90
12893;DHT22;6514;48.606;9.222;2022-08-19T14:30:08;19.20;99.90
12893;DHT22;6514;48.606;9.222;2022-08-19T14:32:35;19.20;99.90
12893;DHT22;6514;48.606;9.222;2022-08-19T14:35:03;19.20;99.90
12893;DHT22;6514;48.606;9.222;2022-08-19T14:37:30;19.20;99.90
12893;DHT22;6514;48.606;9.222;2022-08-19T14:39:57;19.20;99.90
12893;DHT22;6514;48.606;9.222;2022-08-19T14:42:24;19.20;99.90
12893;DHT22;6514;48.606;9.222;2022-08-19T14:44:51;19.20;99.90
12893;DHT22;6514;48.606;9.222;2022-08-19T14:47:19;19.10;99.90
12893;DHT22;6514;48.606;9.222;2022-08-19T14:49:46;19.20;99.90
12893;DHT22;6514;48.606;9.222;2022-08-19T14:52:13;19.10;99.90
12893;DHT22;6514;48.606;9.222;2022-08-19T14:54:40;19.10;99.90
12893;DHT22;6514;48.606;9.222;2022-08-19T14:57:07;19.10;99.90
12893;DHT22;6514;48.606;9.222;2022-08-19T14:59:37;19.10;99.90
12893;DHT22;6514;48.606;9.222;2022-08-19T15:02:05;19.10;99.90
12893;DHT22;6514;48.606;9.222;2022-08-19T15:04:33;19.10;99.90
12893;DHT22;6514;48.606;9.222;2022-08-19T15:07:00;19.10;99.90
12893;DHT22;6514;48.606;9.222;2022-08-19T15:09:29;19.20;99.90
12893;DHT22;6514;48.606;9.222;2022-08-19T15:11:56;19.30;99.90
12893;DHT22;6514;48.606;9.222;2022-08-19T15:14:25;19.40;99.90
12893;DHT22;6514;48.606;9.222;2022-08-19T15:16:52;19.50;99.90
12893;DHT22;6514;48.606;9.222;2022-08-19T15:19:19;19.60;99.90
12893;DHT22;6514;48.606;9.222;2022-08-19T15:21:47;19.80;99.90
12893;DHT22;6514;48.606;9.222;2022-08-19T15:24:14;19.90;99.90
12893;DHT22;6514;48.606;9.222;2022-08-19T15:26:42;20.00;99.90
12893;DHT22;6514;48.606;9.222;2022-08-19T15:29:09;20.00;99.90
12893;DHT22;6514;48.606;9.222;2022-08-19T15:31:40;20.00;99.90
12893;DHT22;6514;48.606;9.222;2022-08-19T15:34:07;20.10;99.90
12893;DHT22;6514;48.606;9.222;2022-08-19T15:36:34;20.00;99.90
12893;DHT22;6514;48.606;9.222;2022-08-19T15:39:04;20.10;99.90
12893;DHT22;6514;48.606;9.222;2022-08-19T15:41:32;20.10;99.90
12893;DHT22;6514;48.606;9.222;2022-08-19T15:44:02;20.10;99.90
12893;DHT22;6514;48.606;9.222;2022-08-19T15:49:00;20.30;99.90
12893;DHT22;6514;48.606;9.222;2022-08-19T15:51:29;20.40;99.90
12893;DHT22;6514;48.606;9.222;2022-08-19T15:53:57;20.60;99.90
12893;DHT22;6514;48.606;9.222;2022-08-19T15:56:28;20.60;99.90
12893;DHT22;6514;48.606;9.222;2022-08-19T15:59:09;20.70;99.90